createdAt,value
2023-04-12T00:00:54.444Z,2.40
2023-04-12T00:03:22.112Z,2.37
2023-04-12T00:05:54.441Z,2.40
2023-04-12T00:08:26.346Z,2.03
2023-04-12T00:10:52.825Z,2.13
2023-04-12T00:13:19.324Z,2.10
2023-04-12T00:15:45.945Z,2.30
2023-04-12T00:18:12.224Z,2.10
2023-04-12T00:20:38.605Z,2.53
2023-04-12T00:23:04.880Z,2.00
2023-04-12T00:25:31.152Z,2.33
2023-04-12T00:27:57.387Z,1.90
2023-04-12T00:30:23.744Z,2.43
2023-04-12T00:32:50.021Z,2.33
2023-04-12T00:35:16.307Z,2.30
2023-04-12T00:37:42.587Z,2.50
2023-04-12T00:40:09.799Z,2.40
2023-04-12T00:42:36.830Z,2.57
2023-04-12T00:45:03.415Z,2.60
2023-04-12T00:47:29.918Z,2.73
2023-04-12T00:49:56.702Z,2.50
2023-04-12T00:52:23.546Z,2.50
2023-04-12T00:54:49.891Z,2.30
2023-04-12T00:57:16.456Z,2.30
2023-04-12T00:59:42.689Z,2.47
2023-04-12T01:02:09.655Z,2.30
2023-04-12T01:04:38.028Z,2.43
2023-04-12T01:07:25.296Z,2.20
2023-04-12T01:10:08.191Z,2.17
2023-04-12T01:12:48.958Z,2.30
2023-04-12T01:15:16.177Z,2.30
2023-04-12T01:17:45.980Z,2.60
2023-04-12T01:20:16.731Z,2.50
2023-04-12T01:23:09.552Z,2.13
2023-04-12T01:25:47.840Z,2.33
2023-04-12T01:28:15.768Z,2.57
2023-04-12T01:30:43.353Z,2.67
2023-04-12T01:33:11.652Z,2.37
2023-04-12T01:35:38.726Z,2.40
2023-04-12T01:38:05.592Z,2.70
2023-04-12T01:40:32.514Z,2.30
2023-04-12T01:43:09.077Z,2.20
2023-04-12T01:45:35.506Z,2.20
2023-04-12T01:48:02.308Z,2.27
2023-04-12T01:50:41.506Z,2.60
2023-04-12T01:53:18.392Z,3.17
2023-04-12T01:55:48.423Z,2.93
2023-04-12T01:58:22.133Z,3.10
2023-04-12T02:00:49.189Z,3.23
2023-04-12T02:03:16.626Z,2.90
2023-04-12T02:05:43.035Z,3.10
2023-04-12T02:08:09.857Z,3.30
2023-04-12T02:10:39.695Z,2.67
2023-04-12T02:13:06.165Z,3.07
2023-04-12T02:15:32.557Z,3.33
2023-04-12T02:17:59.747Z,2.90
2023-04-12T02:20:26.311Z,3.30
2023-04-12T02:22:54.171Z,3.27
2023-04-12T02:25:20.914Z,3.37
2023-04-12T02:27:48.579Z,3.30
2023-04-12T02:30:15.582Z,3.60
2023-04-12T02:32:44.696Z,3.27
2023-04-12T02:35:12.084Z,2.70
2023-04-12T02:37:38.835Z,3.57
2023-04-12T02:40:06.552Z,3.23
2023-04-12T02:42:33.084Z,3.20
2023-04-12T02:44:59.316Z,2.90
2023-04-12T02:47:30.180Z,2.93
2023-04-12T02:49:56.651Z,2.80
2023-04-12T02:52:22.901Z,2.83
2023-04-12T02:54:49.510Z,3.10
2023-04-12T02:57:16.293Z,2.63
2023-04-12T02:59:42.805Z,2.67
2023-04-12T03:02:09.193Z,3.07
2023-04-12T03:04:37.454Z,2.60
2023-04-12T03:07:03.734Z,2.77
2023-04-12T03:09:32.209Z,2.87
2023-04-12T03:11:58.659Z,2.90
2023-04-12T03:14:24.931Z,2.83
2023-04-12T03:16:51.576Z,2.70
2023-04-12T03:19:17.861Z,2.67
2023-04-12T03:21:44.684Z,3.10
2023-04-12T03:24:10.917Z,2.40
2023-04-12T03:26:37.238Z,2.80
2023-04-12T03:29:09.585Z,2.50
2023-04-12T03:31:37.477Z,2.90
2023-04-12T03:34:03.797Z,3.00
2023-04-12T03:36:30.171Z,3.17
2023-04-12T03:38:56.527Z,2.97
2023-04-12T03:41:25.975Z,2.83
2023-04-12T03:43:52.512Z,2.67
2023-04-12T03:46:18.866Z,3.17
2023-04-12T03:48:45.186Z,2.90
2023-04-12T03:51:13.549Z,3.03
2023-04-12T03:53:39.855Z,3.10
2023-04-12T03:56:06.418Z,3.43
2023-04-12T03:58:33.998Z,3.33
2023-04-12T04:01:03.836Z,3.17
2023-04-12T04:03:30.648Z,3.33
2023-04-12T04:05:56.958Z,3.30
2023-04-12T04:08:23.219Z,3.10
2023-04-12T04:10:49.654Z,3.37
2023-04-12T04:13:15.979Z,3.50
2023-04-12T04:15:42.275Z,3.50
2023-04-12T04:18:08.531Z,3.33
2023-04-12T04:20:34.783Z,4.77
2023-04-12T04:23:01.066Z,4.67
2023-04-12T04:25:29.954Z,3.60
2023-04-12T04:27:56.593Z,3.23
2023-04-12T04:30:23.216Z,3.40
2023-04-12T04:32:49.974Z,3.73
2023-04-12T04:35:17.347Z,4.03
2023-04-12T04:37:43.843Z,4.13
2023-04-12T04:40:11.641Z,4.00
2023-04-12T04:42:40.205Z,3.40
2023-04-12T04:45:13.518Z,3.63
2023-04-12T04:47:40.151Z,3.67
2023-04-12T04:50:07.448Z,4.43
2023-04-12T04:52:33.720Z,3.93
2023-04-12T04:55:00.909Z,4.10
2023-04-12T04:57:27.347Z,4.00
2023-04-12T04:59:53.594Z,4.47
2023-04-12T05:02:19.896Z,4.67
2023-04-12T05:04:46.867Z,4.50
2023-04-12T05:07:14.282Z,4.30
2023-04-12T05:09:41.080Z,4.30
2023-04-12T05:12:07.384Z,4.47
2023-04-12T05:14:44.482Z,5.07
2023-04-12T05:17:14.106Z,4.97
2023-04-12T05:19:41.348Z,4.87
2023-04-12T05:22:07.596Z,4.33
2023-04-12T05:24:33.902Z,4.03
2023-04-12T05:27:00.348Z,4.37
2023-04-12T05:29:26.677Z,3.70
2023-04-12T05:31:52.954Z,5.23
2023-04-12T05:34:19.268Z,4.63
2023-04-12T05:36:45.999Z,3.97
2023-04-12T05:39:12.467Z,3.87
2023-04-12T05:41:38.712Z,4.80
2023-04-12T05:44:04.984Z,4.30
2023-04-12T05:46:31.265Z,3.70
2023-04-12T05:48:57.888Z,4.47
2023-04-12T05:51:37.691Z,4.30
2023-04-12T05:54:07.276Z,4.00
2023-04-12T05:56:33.912Z,4.63
2023-04-12T05:59:03.316Z,4.10
2023-04-12T06:01:32.497Z,4.30
2023-04-12T06:03:59.358Z,4.00
2023-04-12T06:06:30.041Z,4.77
2023-04-12T06:08:57.985Z,3.87
2023-04-12T06:11:24.366Z,3.80
2023-04-12T06:13:50.888Z,4.37
2023-04-12T06:16:17.147Z,4.27
2023-04-12T06:18:43.428Z,4.63
2023-04-12T06:21:09.684Z,4.23
2023-04-12T06:23:36.469Z,3.60
2023-04-12T06:26:02.765Z,4.00
2023-04-12T06:28:29.130Z,3.97
2023-04-12T06:30:55.588Z,3.80
2023-04-12T06:33:24.670Z,4.20
2023-04-12T06:35:51.071Z,3.50
2023-04-12T06:38:17.990Z,4.17
2023-04-12T06:40:44.415Z,3.33
2023-04-12T06:43:10.660Z,3.27
2023-04-12T06:45:36.958Z,3.80
2023-04-12T06:48:03.279Z,3.43
2023-04-12T06:50:29.604Z,3.57
2023-04-12T06:52:55.901Z,3.30
2023-04-12T06:55:22.232Z,2.90
2023-04-12T06:57:51.925Z,3.33
2023-04-12T07:00:21.465Z,2.73
2023-04-12T07:02:47.885Z,2.90
2023-04-12T07:05:14.398Z,2.40
2023-04-12T07:07:40.792Z,2.57
2023-04-12T07:10:07.335Z,2.70
2023-04-12T07:12:33.782Z,2.30
2023-04-12T07:15:00.017Z,2.83
2023-04-12T07:17:29.228Z,2.67
2023-04-12T07:19:55.698Z,2.40
2023-04-12T07:22:22.865Z,2.77
2023-04-12T07:24:51.158Z,2.50
2023-04-12T07:27:17.444Z,2.60
2023-04-12T07:29:43.748Z,2.50
2023-04-12T07:32:10.808Z,2.53
2023-04-12T07:34:37.730Z,2.33
2023-04-12T07:37:04.152Z,2.73
2023-04-12T07:39:31.641Z,2.50
2023-04-12T07:41:58.004Z,2.33
2023-04-12T07:44:24.398Z,2.80
2023-04-12T07:46:50.718Z,2.03
2023-04-12T07:49:16.985Z,2.03
2023-04-12T07:51:43.609Z,2.03
2023-04-12T07:54:10.007Z,2.33
2023-04-12T07:56:36.409Z,1.93
2023-04-12T07:59:02.811Z,2.37
2023-04-12T08:01:29.154Z,2.60
2023-04-12T08:03:55.615Z,2.10
2023-04-12T08:06:22.098Z,1.80
2023-04-12T08:08:48.420Z,1.93
2023-04-12T08:11:14.745Z,1.80
2023-04-12T08:13:40.997Z,1.90
2023-04-12T08:16:08.376Z,2.00
2023-04-12T08:18:34.738Z,1.70
2023-04-12T08:21:01.239Z,1.70
2023-04-12T08:23:27.589Z,1.83
2023-04-12T08:26:02.628Z,1.80
2023-04-12T08:28:29.440Z,1.50
2023-04-12T08:30:56.100Z,1.80
2023-04-12T08:33:22.403Z,1.60
2023-04-12T08:35:49.505Z,1.60
2023-04-12T08:38:16.501Z,1.67
2023-04-12T08:40:43.197Z,1.70
2023-04-12T08:43:11.403Z,1.57
2023-04-12T08:45:38.111Z,1.30
2023-04-12T08:48:04.887Z,1.80
2023-04-12T08:50:31.850Z,1.80
2023-04-12T08:52:58.682Z,1.30
2023-04-12T08:55:25.510Z,1.67
2023-04-12T08:57:54.022Z,1.50
2023-04-12T09:00:20.603Z,1.20
2023-04-12T09:02:48.842Z,1.50
2023-04-12T09:05:15.890Z,1.60
2023-04-12T09:07:42.409Z,1.63
2023-04-12T09:10:08.973Z,1.47
2023-04-12T09:12:35.476Z,1.40
2023-04-12T09:15:15.253Z,1.50
2023-04-12T09:17:42.475Z,1.60
2023-04-12T09:20:12.021Z,1.80
2023-04-12T09:22:40.055Z,1.60
2023-04-12T09:25:06.697Z,1.20
2023-04-12T09:27:46.838Z,2.10
2023-04-12T09:30:13.495Z,1.53
2023-04-12T09:32:40.191Z,1.37
2023-04-12T09:35:07.579Z,1.73
2023-04-12T09:37:33.897Z,1.87
2023-04-12T09:40:01.994Z,1.60
2023-04-12T09:42:34.156Z,1.80
2023-04-12T09:45:02.763Z,1.63
2023-04-12T09:47:41.760Z,1.90
2023-04-12T09:50:09.672Z,1.80
2023-04-12T09:52:40.228Z,1.57
2023-04-12T09:55:09.368Z,1.73
2023-04-12T09:57:37.945Z,1.40
2023-04-12T10:00:05.533Z,1.90
2023-04-12T10:02:32.255Z,1.60
2023-04-12T10:04:58.815Z,1.70
2023-04-12T10:07:25.612Z,1.83
2023-04-12T10:09:52.058Z,1.60
2023-04-12T10:12:19.424Z,1.50
2023-04-12T10:14:46.346Z,1.30
2023-04-12T10:17:13.526Z,1.53
2023-04-12T10:19:39.843Z,1.60
2023-04-12T10:22:06.347Z,2.10
2023-04-12T10:24:32.835Z,1.70
2023-04-12T10:27:03.099Z,1.80
2023-04-12T10:29:31.046Z,1.70
2023-04-12T10:31:58.281Z,2.10
2023-04-12T10:34:27.218Z,1.77
2023-04-12T10:36:54.419Z,1.50
2023-04-12T10:39:39.289Z,1.50
2023-04-12T10:42:18.795Z,1.60
2023-04-12T10:44:45.414Z,2.03
2023-04-12T10:47:11.940Z,1.50
2023-04-12T10:49:39.400Z,1.70
2023-04-12T10:52:08.745Z,1.57
2023-04-12T10:54:35.854Z,1.60
2023-04-12T10:57:04.359Z,1.83
2023-04-12T10:59:50.816Z,1.70
2023-04-12T11:02:17.334Z,1.77
2023-04-12T11:05:02.786Z,1.93
2023-04-12T11:07:39.658Z,1.90
2023-04-12T11:10:12.679Z,1.77
2023-04-12T11:12:39.173Z,2.17
2023-04-12T11:15:06.796Z,1.70
2023-04-12T11:17:35.557Z,1.53
2023-04-12T11:20:04.774Z,1.80
2023-04-12T11:22:32.524Z,1.87
2023-04-12T11:24:59.856Z,1.53
2023-04-12T11:27:26.880Z,1.67
2023-04-12T11:29:55.633Z,1.83
2023-04-12T11:32:27.062Z,1.73
2023-04-12T11:34:55.423Z,1.67
2023-04-12T11:37:22.628Z,1.90
2023-04-12T11:39:51.252Z,1.47
2023-04-12T11:42:18.545Z,1.83
2023-04-12T11:44:56.191Z,1.57
2023-04-12T11:47:24.740Z,1.87
2023-04-12T11:49:52.185Z,1.80
2023-04-12T11:52:19.199Z,1.60
2023-04-12T11:54:46.924Z,1.47
2023-04-12T11:57:14.079Z,1.67
2023-04-12T11:59:42.656Z,1.60
2023-04-12T12:02:21.980Z,1.97
2023-04-12T12:04:50.929Z,1.93
2023-04-12T12:07:17.853Z,1.50
2023-04-12T12:09:44.671Z,1.37
2023-04-12T12:12:11.140Z,1.30
2023-04-12T12:14:37.603Z,1.53
2023-04-12T12:17:10.709Z,1.70
2023-04-12T12:19:37.913Z,1.83
2023-04-12T12:22:11.142Z,1.50
2023-04-12T12:24:40.402Z,1.77
2023-04-12T12:27:09.340Z,1.20
2023-04-12T12:29:37.913Z,1.80
2023-04-12T12:32:11.487Z,1.93
2023-04-12T12:34:38.341Z,1.40
2023-04-12T12:37:07.669Z,1.37
2023-04-12T12:39:34.014Z,1.60
2023-04-12T12:42:00.352Z,1.53
2023-04-12T12:50:45.048Z,1.60
2023-04-12T12:53:11.332Z,1.60
2023-04-12T12:55:37.565Z,1.60
2023-04-12T12:58:08.011Z,1.80
2023-04-12T13:00:35.314Z,1.63
2023-04-12T13:03:02.088Z,1.83
2023-04-12T13:05:28.734Z,1.50
2023-04-12T13:07:54.991Z,1.40
2023-04-12T13:10:21.305Z,1.50
2023-04-12T13:12:47.624Z,1.30
2023-04-12T13:15:21.982Z,1.40
2023-04-12T13:17:51.813Z,1.40
2023-04-12T13:20:18.195Z,2.03
2023-04-12T13:22:44.451Z,1.57
2023-04-12T13:25:11.262Z,1.67
2023-04-12T13:27:37.989Z,1.80
2023-04-12T13:30:04.739Z,1.40
2023-04-12T13:32:31.073Z,1.30
2023-04-12T13:34:57.376Z,1.60
2023-04-12T13:37:23.703Z,1.47
2023-04-12T13:39:50.874Z,1.50
2023-04-12T13:42:17.120Z,1.33
2023-04-12T13:44:43.436Z,1.33
2023-04-12T13:47:09.716Z,1.40
2023-04-12T13:49:35.981Z,1.17
2023-04-12T13:52:02.810Z,1.70
2023-04-12T13:54:30.544Z,1.33
2023-04-12T13:56:57.784Z,1.60
2023-04-12T13:59:24.645Z,1.63
2023-04-12T14:01:51.310Z,1.57
2023-04-12T14:04:17.758Z,1.90
2023-04-12T14:06:45.528Z,1.70
2023-04-12T14:09:25.656Z,1.40
2023-04-12T14:11:52.314Z,1.40
2023-04-12T14:14:18.631Z,1.57
2023-04-12T14:16:45.131Z,1.30
2023-04-12T14:19:11.500Z,1.50
2023-04-12T14:21:37.749Z,1.60
2023-04-12T14:24:04.075Z,1.30
2023-04-12T14:26:30.542Z,1.40
2023-04-12T14:28:57.085Z,1.43
2023-04-12T14:31:23.732Z,1.50
2023-04-12T14:33:50.163Z,1.73
2023-04-12T14:36:16.472Z,1.63
2023-04-12T14:38:42.765Z,1.70
2023-04-12T14:41:09.564Z,1.47
2023-04-12T14:43:36.158Z,1.43
2023-04-12T14:46:02.562Z,1.40
2023-04-12T14:48:28.910Z,1.63
2023-04-12T14:50:55.672Z,1.40
2023-04-12T14:53:23.021Z,1.53
2023-04-12T14:55:49.307Z,1.47
2023-04-12T14:58:15.676Z,1.50
2023-04-12T15:00:42.531Z,1.57
2023-04-12T15:03:09.098Z,1.40
2023-04-12T15:05:35.905Z,1.40
2023-04-12T15:08:02.320Z,1.50
2023-04-12T15:10:28.572Z,1.90
2023-04-12T15:12:54.897Z,1.50
2023-04-12T15:15:22.601Z,1.60
2023-04-12T15:17:48.984Z,1.90
2023-04-12T15:20:16.981Z,1.70
2023-04-12T15:22:43.618Z,1.50
2023-04-12T15:25:11.444Z,2.47
2023-04-12T15:27:37.935Z,1.73
2023-04-12T15:30:05.482Z,1.80
2023-04-12T15:32:38.621Z,1.70
2023-04-12T15:35:22.810Z,2.00
2023-04-12T15:37:53.743Z,2.00
2023-04-12T15:40:21.204Z,2.20
2023-04-12T15:42:47.504Z,2.40
2023-04-12T15:45:14.129Z,2.00
2023-04-12T15:47:40.461Z,2.53
2023-04-12T15:50:07.994Z,2.50
2023-04-12T15:52:34.463Z,2.03
2023-04-12T15:55:00.811Z,2.13
2023-04-12T15:57:27.692Z,2.47
2023-04-12T15:59:55.486Z,2.40
2023-04-12T16:02:22.083Z,2.43
2023-04-12T16:04:48.671Z,2.40
2023-04-12T16:07:15.298Z,2.40
2023-04-12T16:09:42.269Z,2.50
2023-04-12T16:12:08.573Z,2.87
2023-04-12T16:14:34.866Z,3.33
2023-04-12T16:17:01.770Z,3.30
2023-04-12T16:19:28.261Z,2.57
2023-04-12T16:21:54.704Z,2.73
2023-04-12T16:24:21.053Z,2.90
2023-04-12T16:26:48.070Z,2.83
2023-04-12T16:29:14.469Z,3.10
2023-04-12T16:31:41.136Z,2.90
2023-04-12T16:34:08.429Z,3.13
2023-04-12T16:36:34.869Z,2.80
2023-04-12T16:39:03.468Z,3.03
2023-04-12T16:41:29.876Z,3.20
2023-04-12T16:43:59.320Z,2.90
2023-04-12T16:46:26.002Z,3.00
2023-04-12T16:48:52.357Z,2.40
2023-04-12T16:51:18.731Z,2.93
2023-04-12T16:53:45.187Z,2.40
2023-04-12T16:56:11.802Z,2.93
2023-04-12T16:58:38.478Z,2.50
2023-04-12T17:01:05.030Z,2.50
2023-04-12T17:03:31.440Z,2.67
2023-04-12T17:05:58.185Z,3.03
2023-04-12T17:08:24.515Z,2.50
2023-04-12T17:10:51.219Z,2.30
2023-04-12T17:13:19.979Z,2.20
2023-04-12T17:15:48.176Z,2.60
2023-04-12T17:18:14.701Z,2.70
2023-04-12T17:20:41.242Z,3.90
2023-04-12T17:23:08.625Z,3.10
2023-04-12T17:25:35.799Z,3.53
2023-04-12T17:28:02.452Z,2.63
2023-04-12T17:30:29.233Z,2.30
2023-04-12T17:32:57.540Z,2.50
2023-04-12T17:35:23.884Z,2.60
2023-04-12T17:37:50.181Z,2.60
2023-04-12T17:40:16.857Z,2.30
2023-04-12T17:42:43.598Z,2.60
2023-04-12T17:45:12.510Z,2.40
2023-04-12T17:47:39.588Z,2.50
2023-04-12T17:50:06.949Z,2.30
2023-04-12T17:52:33.248Z,2.40
2023-04-12T17:54:59.973Z,2.60
2023-04-12T17:57:27.624Z,2.53
2023-04-12T17:59:53.918Z,2.67
2023-04-12T18:02:20.342Z,3.07
2023-04-12T18:04:48.349Z,3.10
2023-04-12T18:07:16.364Z,3.27
2023-04-12T18:09:44.733Z,3.07
2023-04-12T18:12:11.808Z,2.93
2023-04-12T18:14:40.401Z,3.33
2023-04-12T18:17:07.349Z,3.07
2023-04-12T18:19:33.808Z,2.90
2023-04-12T18:22:00.419Z,2.80
2023-04-12T18:24:26.803Z,3.50
2023-04-12T18:26:53.168Z,2.90
2023-04-12T18:29:19.544Z,3.20
2023-04-12T18:31:46.144Z,3.10
2023-04-12T18:34:12.683Z,2.70
2023-04-12T18:36:39.476Z,3.03
2023-04-12T18:39:06.272Z,3.23
2023-04-12T18:41:32.657Z,3.00
2023-04-12T18:43:59.110Z,3.20
2023-04-12T18:46:29.488Z,3.07
2023-04-12T18:48:55.918Z,2.70
2023-04-12T18:51:22.852Z,3.10
2023-04-12T18:53:50.443Z,2.93
2023-04-12T18:56:18.524Z,3.00
2023-04-12T18:58:54.495Z,3.10
2023-04-12T19:01:22.102Z,2.70
2023-04-12T19:03:48.611Z,3.10
2023-04-12T19:06:15.337Z,3.00
2023-04-12T19:08:42.956Z,3.10
2023-04-12T19:11:09.317Z,2.90
2023-04-12T19:13:36.906Z,2.70
2023-04-12T19:16:03.258Z,3.07
2023-04-12T19:18:30.217Z,2.93
2023-04-12T19:20:56.565Z,2.60
2023-04-12T19:23:23.030Z,2.47
2023-04-12T19:25:49.670Z,2.57
2023-04-12T19:28:16.425Z,2.67
2023-04-12T19:30:42.716Z,2.50
2023-04-12T19:33:09.078Z,2.63
2023-04-12T19:35:35.622Z,2.60
2023-04-12T19:38:03.496Z,3.23
2023-04-12T19:40:31.121Z,2.40
2023-04-12T19:42:57.628Z,2.50
2023-04-12T20:00:30.837Z,2.60
2023-04-12T20:02:57.186Z,2.57
2023-04-12T20:05:24.128Z,3.00
2023-04-12T20:07:52.600Z,2.67
2023-04-12T20:10:20.044Z,2.60
2023-04-12T20:12:46.615Z,3.03
2023-04-12T20:15:13.169Z,2.70
2023-04-12T20:17:41.321Z,2.60
2023-04-12T20:20:10.864Z,2.63
2023-04-12T20:22:37.687Z,3.00
2023-04-12T20:25:05.681Z,2.70
2023-04-12T20:27:32.911Z,2.63
2023-04-12T20:29:59.213Z,3.07
2023-04-12T20:32:25.810Z,2.83
2023-04-12T20:34:52.794Z,2.50
2023-04-12T20:37:19.104Z,2.60
2023-04-12T20:39:45.514Z,2.33
2023-04-12T20:42:12.393Z,2.77
2023-04-12T20:44:38.768Z,2.80
2023-04-12T20:47:05.015Z,2.33
2023-04-12T20:49:31.928Z,2.30
2023-04-12T20:51:59.091Z,2.50
2023-04-12T20:54:26.417Z,2.37
2023-04-12T20:56:54.180Z,2.70
2023-04-12T20:59:23.248Z,2.50
2023-04-12T21:01:50.166Z,2.50
2023-04-12T21:04:17.414Z,2.47
2023-04-12T21:06:45.111Z,2.43
2023-04-12T21:09:11.412Z,2.80
2023-04-12T21:11:37.904Z,2.33
2023-04-12T21:14:04.842Z,2.10
2023-04-12T21:16:31.302Z,2.70
2023-04-12T21:18:59.235Z,2.53
2023-04-12T21:21:27.077Z,2.30
2023-04-12T21:23:53.297Z,2.73
2023-04-12T21:26:20.674Z,2.80
2023-04-12T21:28:47.061Z,2.80
2023-04-12T21:31:13.377Z,2.80
2023-04-12T21:33:39.716Z,2.63
2023-04-12T21:36:06.534Z,2.70
2023-04-12T21:38:32.787Z,2.40
2023-04-12T21:41:04.762Z,2.87
2023-04-12T21:43:31.099Z,3.17
2023-04-12T21:45:57.470Z,2.50
2023-04-12T21:48:23.804Z,3.10
2023-04-12T21:50:50.059Z,3.40
2023-04-12T21:53:16.519Z,2.83
2023-04-12T21:55:42.787Z,3.20
2023-04-12T21:58:09.125Z,3.23
2023-04-12T22:00:36.940Z,3.17
2023-04-12T22:03:03.605Z,2.90
2023-04-12T22:05:30.221Z,3.13
2023-04-12T22:07:57.722Z,3.17
2023-04-12T22:10:24.571Z,3.60
2023-04-12T22:12:51.171Z,3.30
2023-04-12T22:15:17.724Z,3.07
2023-04-12T22:17:45.137Z,3.00
2023-04-12T22:20:12.749Z,3.20
2023-04-12T22:22:39.958Z,3.37
2023-04-12T22:25:08.013Z,3.00
2023-04-12T22:27:34.263Z,3.60
2023-04-12T22:30:00.690Z,3.60
2023-04-12T22:32:27.452Z,3.13
2023-04-12T22:35:05.127Z,3.43
2023-04-12T22:37:34.821Z,3.47
2023-04-12T22:40:11.684Z,3.43
2023-04-12T22:42:38.478Z,3.60
2023-04-12T22:45:07.377Z,3.40
2023-04-12T22:47:34.481Z,3.53
2023-04-12T22:50:01.714Z,3.30
2023-04-12T22:52:30.566Z,3.70
2023-04-12T22:54:56.942Z,3.73
2023-04-12T22:57:23.772Z,3.60
2023-04-12T22:59:51.537Z,3.63
2023-04-12T23:02:18.141Z,3.57
2023-04-12T23:04:48.798Z,3.63
2023-04-12T23:07:15.364Z,4.00
2023-04-12T23:09:42.480Z,3.80
2023-04-12T23:12:08.906Z,3.90
2023-04-12T23:14:37.581Z,3.60
2023-04-12T23:17:03.913Z,4.10
2023-04-12T23:19:30.253Z,4.43
2023-04-12T23:21:56.550Z,3.97
2023-04-12T23:24:22.820Z,4.10
2023-04-12T23:26:49.073Z,4.23
2023-04-12T23:29:15.455Z,4.00
2023-04-12T23:31:41.775Z,4.27
2023-04-12T23:34:08.109Z,4.70
2023-04-12T23:36:34.355Z,3.87
2023-04-12T23:39:01.361Z,4.60
2023-04-12T23:41:27.814Z,4.27
2023-04-12T23:43:55.106Z,4.07
2023-04-12T23:46:21.696Z,4.80
2023-04-12T23:48:49.437Z,4.30
2023-04-12T23:51:16.326Z,4.73
2023-04-12T23:53:42.798Z,4.60
2023-04-12T23:56:09.324Z,4.77
2023-04-12T23:58:35.652Z,5.30
